sensor_id;sensor_type;location;lat;lon;timestamp;P1;durP1;ratioP1;P2;durP2;ratioP2
76447;SDS011;65284;51.040;13.722;2023-05-07T00:01:36;22.77;;;11.80;;
76447;SDS011;65284;51.040;13.722;2023-05-07T00:04:03;20.25;;;10.75;;
76447;SDS011;65284;51.040;13.722;2023-05-07T00:06:29;20.92;;;10.88;;
76447;SDS011;65284;51.040;13.722;2023-05-07T00:08:56;22.45;;;11.15;;
76447;SDS011;65284;51.040;13.722;2023-05-07T00:11:24;22.48;;;11.35;;
76447;SDS011;65284;51.040;13.722;2023-05-07T00:13:50;21.58;;;11.10;;
76447;SDS011;65284;51.040;13.722;2023-05-07T00:16:17;21.13;;;10.48;;
76447;SDS011;65284;51.040;13.722;2023-05-07T00:18:43;22.80;;;10.52;;
76447;SDS011;65284;51.040;13.722;2023-05-07T00:21:10;21.58;;;11.38;;
76447;SDS011;65284;51.040;13.722;2023-05-07T00:23:36;24.48;;;12.18;;
76447;SDS011;65284;51.040;13.722;2023-05-07T00:26:03;22.50;;;11.63;;
76447;SDS011;65284;51.040;13.722;2023-05-07T00:28:30;24.77;;;11.90;;
76447;SDS011;65284;51.040;13.722;2023-05-07T00:30:56;23.45;;;12.18;;
76447;SDS011;65284;51.040;13.722;2023-05-07T00:33:23;23.95;;;12.15;;
76447;SDS011;65284;51.040;13.722;2023-05-07T00:35:50;25.40;;;13.35;;
76447;SDS011;65284;51.040;13.722;2023-05-07T00:38:16;24.55;;;13.20;;
76447;SDS011;65284;51.040;13.722;2023-05-07T00:40:42;25.42;;;13.60;;
76447;SDS011;65284;51.040;13.722;2023-05-07T00:43:09;26.98;;;13.60;;
76447;SDS011;65284;51.040;13.722;2023-05-07T00:45:35;23.80;;;13.60;;
76447;SDS011;65284;51.040;13.722;2023-05-07T00:48:02;26.20;;;13.73;;
76447;SDS011;65284;51.040;13.722;2023-05-07T00:50:30;27.10;;;14.15;;
76447;SDS011;65284;51.040;13.722;2023-05-07T00:52:57;24.95;;;13.38;;
76447;SDS011;65284;51.040;13.722;2023-05-07T00:55:24;27.42;;;14.30;;
76447;SDS011;65284;51.040;13.722;2023-05-07T00:57:51;26.67;;;13.38;;
76447;SDS011;65284;51.040;13.722;2023-05-07T01:00:17;25.20;;;13.93;;
76447;SDS011;65284;51.040;13.722;2023-05-07T01:02:45;26.42;;;14.10;;
76447;SDS011;65284;51.040;13.722;2023-05-07T01:05:14;26.38;;;13.85;;
76447;SDS011;65284;51.040;13.722;2023-05-07T01:07:44;25.80;;;13.65;;
76447;SDS011;65284;51.040;13.722;2023-05-07T01:10:11;26.33;;;13.60;;
76447;SDS011;65284;51.040;13.722;2023-05-07T01:12:38;24.83;;;13.20;;
76447;SDS011;65284;51.040;13.722;2023-05-07T01:15:07;25.70;;;13.27;;
76447;SDS011;65284;51.040;13.722;2023-05-07T01:17:39;24.63;;;12.75;;
76447;SDS011;65284;51.040;13.722;2023-05-07T01:20:07;25.73;;;13.00;;
76447;SDS011;65284;51.040;13.722;2023-05-07T01:22:35;22.35;;;12.38;;
76447;SDS011;65284;51.040;13.722;2023-05-07T01:25:03;22.90;;;12.60;;
76447;SDS011;65284;51.040;13.722;2023-05-07T01:27:31;21.42;;;12.00;;
76447;SDS011;65284;51.040;13.722;2023-05-07T01:29:59;20.48;;;11.55;;
76447;SDS011;65284;51.040;13.722;2023-05-07T01:35:20;21.15;;;11.85;;
76447;SDS011;65284;51.040;13.722;2023-05-07T01:37:50;25.80;;;12.38;;
76447;SDS011;65284;51.040;13.722;2023-05-07T01:40:17;23.55;;;11.88;;
76447;SDS011;65284;51.040;13.722;2023-05-07T01:42:44;19.05;;;10.95;;
76447;SDS011;65284;51.040;13.722;2023-05-07T01:45:12;19.25;;;10.85;;
76447;SDS011;65284;51.040;13.722;2023-05-07T01:47:38;19.02;;;10.93;;
76447;SDS011;65284;51.040;13.722;2023-05-07T01:50:05;21.20;;;11.30;;
76447;SDS011;65284;51.040;13.722;2023-05-07T01:52:35;19.10;;;10.75;;
76447;SDS011;65284;51.040;13.722;2023-05-07T01:55:03;21.55;;;10.80;;
76447;SDS011;65284;51.040;13.722;2023-05-07T01:57:31;20.52;;;11.48;;
76447;SDS011;65284;51.040;13.722;2023-05-07T01:59:57;19.52;;;11.15;;
76447;SDS011;65284;51.040;13.722;2023-05-07T02:02:23;18.52;;;10.60;;
76447;SDS011;65284;51.040;13.722;2023-05-07T02:04:50;17.88;;;10.35;;
76447;SDS011;65284;51.040;13.722;2023-05-07T02:07:17;18.55;;;10.68;;
76447;SDS011;65284;51.040;13.722;2023-05-07T02:09:43;19.23;;;10.70;;
76447;SDS011;65284;51.040;13.722;2023-05-07T02:12:09;19.90;;;11.48;;
76447;SDS011;65284;51.040;13.722;2023-05-07T02:14:36;20.23;;;11.60;;
76447;SDS011;65284;51.040;13.722;2023-05-07T02:17:02;18.98;;;10.80;;
76447;SDS011;65284;51.040;13.722;2023-05-07T02:19:29;19.25;;;11.27;;
76447;SDS011;65284;51.040;13.722;2023-05-07T02:21:55;19.58;;;11.43;;
76447;SDS011;65284;51.040;13.722;2023-05-07T02:24:21;20.10;;;10.93;;
76447;SDS011;65284;51.040;13.722;2023-05-07T02:26:48;19.77;;;11.13;;
76447;SDS011;65284;51.040;13.722;2023-05-07T02:29:14;20.52;;;10.98;;
76447;SDS011;65284;51.040;13.722;2023-05-07T02:31:41;22.08;;;11.95;;
76447;SDS011;65284;51.040;13.722;2023-05-07T02:34:07;21.25;;;11.77;;
76447;SDS011;65284;51.040;13.722;2023-05-07T02:36:34;17.25;;;10.25;;
76447;SDS011;65284;51.040;13.722;2023-05-07T02:39:01;19.27;;;11.07;;
76447;SDS011;65284;51.040;13.722;2023-05-07T02:41:28;18.98;;;10.82;;
76447;SDS011;65284;51.040;13.722;2023-05-07T02:43:55;20.05;;;11.10;;
76447;SDS011;65284;51.040;13.722;2023-05-07T02:46:22;22.90;;;11.82;;
76447;SDS011;65284;51.040;13.722;2023-05-07T02:48:48;19.33;;;10.82;;
76447;SDS011;65284;51.040;13.722;2023-05-07T02:51:16;20.10;;;11.32;;
76447;SDS011;65284;51.040;13.722;2023-05-07T02:53:49;20.48;;;11.57;;
76447;SDS011;65284;51.040;13.722;2023-05-07T02:56:15;19.25;;;10.30;;
76447;SDS011;65284;51.040;13.722;2023-05-07T02:58:41;20.55;;;10.88;;
76447;SDS011;65284;51.040;13.722;2023-05-07T03:01:08;20.65;;;10.77;;
76447;SDS011;65284;51.040;13.722;2023-05-07T03:03:35;19.92;;;11.13;;
76447;SDS011;65284;51.040;13.722;2023-05-07T03:06:01;16.55;;;9.55;;
76447;SDS011;65284;51.040;13.722;2023-05-07T03:08:28;17.50;;;10.00;;
76447;SDS011;65284;51.040;13.722;2023-05-07T03:10:54;17.00;;;9.60;;
76447;SDS011;65284;51.040;13.722;2023-05-07T03:13:21;17.25;;;9.93;;
76447;SDS011;65284;51.040;13.722;2023-05-07T03:15:47;15.75;;;8.95;;
76447;SDS011;65284;51.040;13.722;2023-05-07T03:18:14;16.27;;;9.02;;
76447;SDS011;65284;51.040;13.722;2023-05-07T03:20:40;17.00;;;8.80;;
76447;SDS011;65284;51.040;13.722;2023-05-07T03:23:07;15.18;;;8.57;;
76447;SDS011;65284;51.040;13.722;2023-05-07T03:25:33;14.43;;;7.68;;
76447;SDS011;65284;51.040;13.722;2023-05-07T03:28:00;13.82;;;7.47;;
76447;SDS011;65284;51.040;13.722;2023-05-07T03:30:26;12.20;;;7.38;;
76447;SDS011;65284;51.040;13.722;2023-05-07T03:32:53;13.88;;;7.78;;
76447;SDS011;65284;51.040;13.722;2023-05-07T03:35:20;15.40;;;8.50;;
76447;SDS011;65284;51.040;13.722;2023-05-07T03:37:46;14.73;;;8.40;;
76447;SDS011;65284;51.040;13.722;2023-05-07T03:40:12;15.25;;;8.48;;
76447;SDS011;65284;51.040;13.722;2023-05-07T03:42:40;14.65;;;8.45;;
76447;SDS011;65284;51.040;13.722;2023-05-07T03:45:07;15.63;;;8.65;;
76447;SDS011;65284;51.040;13.722;2023-05-07T03:47:34;14.60;;;7.90;;
76447;SDS011;65284;51.040;13.722;2023-05-07T03:50:00;16.25;;;8.30;;
76447;SDS011;65284;51.040;13.722;2023-05-07T03:52:27;15.48;;;8.40;;
76447;SDS011;65284;51.040;13.722;2023-05-07T03:54:53;15.18;;;8.32;;
76447;SDS011;65284;51.040;13.722;2023-05-07T03:57:19;15.70;;;8.95;;
76447;SDS011;65284;51.040;13.722;2023-05-07T03:59:46;15.90;;;8.23;;
76447;SDS011;65284;51.040;13.722;2023-05-07T04:02:12;15.52;;;8.65;;
76447;SDS011;65284;51.040;13.722;2023-05-07T04:04:39;16.27;;;8.52;;
76447;SDS011;65284;51.040;13.722;2023-05-07T04:07:05;17.08;;;8.63;;
76447;SDS011;65284;51.040;13.722;2023-05-07T04:09:33;16.38;;;8.80;;
76447;SDS011;65284;51.040;13.722;2023-05-07T04:11:59;18.60;;;9.02;;
76447;SDS011;65284;51.040;13.722;2023-05-07T04:14:27;18.25;;;9.13;;
76447;SDS011;65284;51.040;13.722;2023-05-07T04:16:53;18.02;;;9.25;;
76447;SDS011;65284;51.040;13.722;2023-05-07T04:19:20;19.08;;;9.50;;
76447;SDS011;65284;51.040;13.722;2023-05-07T04:21:47;18.27;;;10.00;;
76447;SDS011;65284;51.040;13.722;2023-05-07T04:24:13;19.05;;;9.02;;
76447;SDS011;65284;51.040;13.722;2023-05-07T04:26:40;19.60;;;9.43;;
76447;SDS011;65284;51.040;13.722;2023-05-07T04:29:06;17.08;;;9.32;;
76447;SDS011;65284;51.040;13.722;2023-05-07T04:31:33;18.05;;;9.00;;
76447;SDS011;65284;51.040;13.722;2023-05-07T04:33:59;19.67;;;9.07;;
76447;SDS011;65284;51.040;13.722;2023-05-07T04:36:26;17.63;;;9.27;;
76447;SDS011;65284;51.040;13.722;2023-05-07T04:38:53;15.82;;;8.73;;
76447;SDS011;65284;51.040;13.722;2023-05-07T04:41:20;17.10;;;9.13;;
76447;SDS011;65284;51.040;13.722;2023-05-07T04:43:47;17.02;;;9.05;;
76447;SDS011;65284;51.040;13.722;2023-05-07T04:46:13;19.88;;;9.05;;
76447;SDS011;65284;51.040;13.722;2023-05-07T04:48:40;17.02;;;8.93;;
76447;SDS011;65284;51.040;13.722;2023-05-07T04:51:07;15.77;;;8.55;;
76447;SDS011;65284;51.040;13.722;2023-05-07T04:53:33;16.58;;;8.63;;
76447;SDS011;65284;51.040;13.722;2023-05-07T04:56:00;15.02;;;8.32;;
76447;SDS011;65284;51.040;13.722;2023-05-07T04:58:26;16.70;;;8.38;;
76447;SDS011;65284;51.040;13.722;2023-05-07T05:00:53;16.58;;;8.82;;
76447;SDS011;65284;51.040;13.722;2023-05-07T05:03:19;16.80;;;8.73;;
76447;SDS011;65284;51.040;13.722;2023-05-07T05:05:46;16.52;;;9.00;;
76447;SDS011;65284;51.040;13.722;2023-05-07T05:08:15;15.27;;;8.63;;
76447;SDS011;65284;51.040;13.722;2023-05-07T05:10:41;16.83;;;9.27;;
76447;SDS011;65284;51.040;13.722;2023-05-07T05:13:09;17.55;;;9.20;;
76447;SDS011;65284;51.040;13.722;2023-05-07T05:15:38;20.05;;;9.85;;
76447;SDS011;65284;51.040;13.722;2023-05-07T05:18:05;18.10;;;9.38;;
76447;SDS011;65284;51.040;13.722;2023-05-07T05:20:31;18.05;;;9.43;;
76447;SDS011;65284;51.040;13.722;2023-05-07T05:22:58;19.13;;;9.20;;
76447;SDS011;65284;51.040;13.722;2023-05-07T05:25:24;20.67;;;9.20;;
76447;SDS011;65284;51.040;13.722;2023-05-07T05:27:51;20.58;;;9.52;;
76447;SDS011;65284;51.040;13.722;2023-05-07T05:30:17;16.67;;;8.65;;
76447;SDS011;65284;51.040;13.722;2023-05-07T05:32:45;17.23;;;8.98;;
76447;SDS011;65284;51.040;13.722;2023-05-07T05:35:12;19.02;;;8.55;;
76447;SDS011;65284;51.040;13.722;2023-05-07T05:37:39;17.92;;;9.20;;
76447;SDS011;65284;51.040;13.722;2023-05-07T05:40:05;16.98;;;8.75;;
76447;SDS011;65284;51.040;13.722;2023-05-07T05:42:32;20.27;;;9.30;;
76447;SDS011;65284;51.040;13.722;2023-05-07T05:44:59;19.13;;;9.77;;
76447;SDS011;65284;51.040;13.722;2023-05-07T05:47:25;19.95;;;9.55;;
76447;SDS011;65284;51.040;13.722;2023-05-07T05:49:52;18.95;;;9.50;;
76447;SDS011;65284;51.040;13.722;2023-05-07T05:52:18;19.15;;;9.55;;
76447;SDS011;65284;51.040;13.722;2023-05-07T05:54:44;20.27;;;9.90;;
76447;SDS011;65284;51.040;13.722;2023-05-07T05:57:11;19.25;;;9.88;;
76447;SDS011;65284;51.040;13.722;2023-05-07T05:59:37;21.65;;;10.75;;
76447;SDS011;65284;51.040;13.722;2023-05-07T06:02:04;22.45;;;10.65;;
76447;SDS011;65284;51.040;13.722;2023-05-07T06:04:30;21.48;;;11.18;;
76447;SDS011;65284;51.040;13.722;2023-05-07T06:06:57;20.23;;;10.40;;
76447;SDS011;65284;51.040;13.722;2023-05-07T06:09:23;18.10;;;10.00;;
76447;SDS011;65284;51.040;13.722;2023-05-07T06:11:50;19.73;;;10.05;;
76447;SDS011;65284;51.040;13.722;2023-05-07T06:14:16;16.83;;;8.70;;
76447;SDS011;65284;51.040;13.722;2023-05-07T06:16:43;13.50;;;6.95;;
76447;SDS011;65284;51.040;13.722;2023-05-07T06:19:10;14.30;;;7.05;;
76447;SDS011;65284;51.040;13.722;2023-05-07T06:21:36;13.25;;;7.05;;
76447;SDS011;65284;51.040;13.722;2023-05-07T06:24:03;13.52;;;7.03;;
76447;SDS011;65284;51.040;13.722;2023-05-07T06:26:29;15.75;;;7.57;;
76447;SDS011;65284;51.040;13.722;2023-05-07T06:28:56;14.00;;;7.30;;
76447;SDS011;65284;51.040;13.722;2023-05-07T06:31:22;12.18;;;6.50;;
76447;SDS011;65284;51.040;13.722;2023-05-07T06:33:49;11.95;;;6.18;;
76447;SDS011;65284;51.040;13.722;2023-05-07T06:36:16;11.98;;;6.15;;
76447;SDS011;65284;51.040;13.722;2023-05-07T06:38:42;12.05;;;5.97;;
76447;SDS011;65284;51.040;13.722;2023-05-07T06:41:09;10.48;;;5.53;;
76447;SDS011;65284;51.040;13.722;2023-05-07T06:43:35;11.80;;;5.55;;
76447;SDS011;65284;51.040;13.722;2023-05-07T06:46:02;11.25;;;5.63;;
76447;SDS011;65284;51.040;13.722;2023-05-07T06:48:28;10.57;;;6.00;;
76447;SDS011;65284;51.040;13.722;2023-05-07T06:50:54;10.40;;;5.78;;
76447;SDS011;65284;51.040;13.722;2023-05-07T06:53:23;11.02;;;5.65;;
76447;SDS011;65284;51.040;13.722;2023-05-07T06:55:50;10.48;;;5.97;;
76447;SDS011;65284;51.040;13.722;2023-05-07T06:58:18;10.32;;;5.80;;
76447;SDS011;65284;51.040;13.722;2023-05-07T07:00:44;12.98;;;7.07;;
76447;SDS011;65284;51.040;13.722;2023-05-07T07:03:11;10.55;;;6.00;;
76447;SDS011;65284;51.040;13.722;2023-05-07T07:05:40;10.68;;;6.15;;
76447;SDS011;65284;51.040;13.722;2023-05-07T07:08:07;11.73;;;6.05;;
76447;SDS011;65284;51.040;13.722;2023-05-07T07:10:33;24.67;;;12.07;;
76447;SDS011;65284;51.040;13.722;2023-05-07T07:13:00;27.00;;;12.90;;
76447;SDS011;65284;51.040;13.722;2023-05-07T07:15:26;12.75;;;6.95;;
76447;SDS011;65284;51.040;13.722;2023-05-07T07:17:53;12.98;;;7.50;;
76447;SDS011;65284;51.040;13.722;2023-05-07T07:20:19;15.45;;;7.43;;
76447;SDS011;65284;51.040;13.722;2023-05-07T07:22:46;14.40;;;6.82;;
76447;SDS011;65284;51.040;13.722;2023-05-07T07:25:12;12.85;;;7.22;;
76447;SDS011;65284;51.040;13.722;2023-05-07T07:27:38;12.35;;;6.45;;
76447;SDS011;65284;51.040;13.722;2023-05-07T07:30:06;10.88;;;6.28;;
76447;SDS011;65284;51.040;13.722;2023-05-07T07:32:34;12.05;;;6.53;;
76447;SDS011;65284;51.040;13.722;2023-05-07T07:35:01;10.13;;;5.75;;
76447;SDS011;65284;51.040;13.722;2023-05-07T07:37:28;8.38;;;5.10;;
76447;SDS011;65284;51.040;13.722;2023-05-07T07:39:54;8.02;;;4.95;;
76447;SDS011;65284;51.040;13.722;2023-05-07T07:42:21;23.25;;;11.73;;
76447;SDS011;65284;51.040;13.722;2023-05-07T07:44:48;23.42;;;10.85;;
76447;SDS011;65284;51.040;13.722;2023-05-07T07:47:14;9.80;;;5.10;;
76447;SDS011;65284;51.040;13.722;2023-05-07T07:49:41;9.40;;;5.25;;
76447;SDS011;65284;51.040;13.722;2023-05-07T07:52:07;8.55;;;5.07;;
76447;SDS011;65284;51.040;13.722;2023-05-07T07:54:34;9.45;;;5.38;;
76447;SDS011;65284;51.040;13.722;2023-05-07T07:57:00;8.07;;;4.80;;
76447;SDS011;65284;51.040;13.722;2023-05-07T07:59:27;7.97;;;4.63;;
76447;SDS011;65284;51.040;13.722;2023-05-07T08:01:53;7.22;;;4.53;;
76447;SDS011;65284;51.040;13.722;2023-05-07T08:06:49;7.28;;;4.28;;
76447;SDS011;65284;51.040;13.722;2023-05-07T08:09:16;8.27;;;4.93;;
76447;SDS011;65284;51.040;13.722;2023-05-07T08:11:43;8.57;;;4.85;;
76447;SDS011;65284;51.040;13.722;2023-05-07T08:14:09;7.15;;;4.72;;
76447;SDS011;65284;51.040;13.722;2023-05-07T08:16:36;8.77;;;5.07;;
76447;SDS011;65284;51.040;13.722;2023-05-07T08:19:02;7.70;;;4.70;;
76447;SDS011;65284;51.040;13.722;2023-05-07T08:21:29;8.07;;;5.03;;
76447;SDS011;65284;51.040;13.722;2023-05-07T08:23:59;7.63;;;4.60;;
76447;SDS011;65284;51.040;13.722;2023-05-07T08:26:25;7.07;;;4.28;;
76447;SDS011;65284;51.040;13.722;2023-05-07T08:28:52;7.57;;;4.85;;
76447;SDS011;65284;51.040;13.722;2023-05-07T08:31:18;7.15;;;4.28;;
76447;SDS011;65284;51.040;13.722;2023-05-07T08:33:45;6.78;;;4.30;;
76447;SDS011;65284;51.040;13.722;2023-05-07T08:36:11;6.68;;;4.25;;
76447;SDS011;65284;51.040;13.722;2023-05-07T08:38:38;19.27;;;9.48;;
76447;SDS011;65284;51.040;13.722;2023-05-07T08:41:06;34.30;;;15.95;;
76447;SDS011;65284;51.040;13.722;2023-05-07T08:43:36;7.55;;;4.45;;
76447;SDS011;65284;51.040;13.722;2023-05-07T08:46:04;6.20;;;3.92;;
76447;SDS011;65284;51.040;13.722;2023-05-07T08:48:34;6.80;;;4.07;;
76447;SDS011;65284;51.040;13.722;2023-05-07T08:51:01;6.35;;;4.25;;
76447;SDS011;65284;51.040;13.722;2023-05-07T08:53:28;7.93;;;4.22;;
76447;SDS011;65284;51.040;13.722;2023-05-07T08:55:55;9.85;;;5.97;;
76447;SDS011;65284;51.040;13.722;2023-05-07T08:58:21;10.35;;;6.30;;
76447;SDS011;65284;51.040;13.722;2023-05-07T09:00:48;7.72;;;4.60;;
76447;SDS011;65284;51.040;13.722;2023-05-07T09:03:16;6.85;;;4.53;;
76447;SDS011;65284;51.040;13.722;2023-05-07T09:05:42;7.50;;;5.05;;
76447;SDS011;65284;51.040;13.722;2023-05-07T09:08:10;7.65;;;5.05;;
76447;SDS011;65284;51.040;13.722;2023-05-07T09:10:41;8.63;;;5.45;;
76447;SDS011;65284;51.040;13.722;2023-05-07T09:13:07;9.63;;;5.55;;
76447;SDS011;65284;51.040;13.722;2023-05-07T09:15:34;8.63;;;5.68;;
76447;SDS011;65284;51.040;13.722;2023-05-07T09:18:00;8.05;;;5.50;;
76447;SDS011;65284;51.040;13.722;2023-05-07T09:20:29;11.18;;;5.65;;
76447;SDS011;65284;51.040;13.722;2023-05-07T09:22:56;10.45;;;5.35;;
76447;SDS011;65284;51.040;13.722;2023-05-07T09:25:29;10.63;;;5.68;;
76447;SDS011;65284;51.040;13.722;2023-05-07T09:27:56;9.10;;;5.53;;
76447;SDS011;65284;51.040;13.722;2023-05-07T09:30:23;9.68;;;6.00;;
76447;SDS011;65284;51.040;13.722;2023-05-07T09:32:53;12.00;;;7.57;;
76447;SDS011;65284;51.040;13.722;2023-05-07T09:35:20;36.20;;;16.95;;
76447;SDS011;65284;51.040;13.722;2023-05-07T09:37:56;12.48;;;7.25;;
76447;SDS011;65284;51.040;13.722;2023-05-07T09:40:26;9.88;;;5.90;;
76447;SDS011;65284;51.040;13.722;2023-05-07T09:42:54;9.77;;;6.10;;
76447;SDS011;65284;51.040;13.722;2023-05-07T09:45:27;10.85;;;6.28;;
76447;SDS011;65284;51.040;13.722;2023-05-07T09:47:55;11.57;;;6.22;;
76447;SDS011;65284;51.040;13.722;2023-05-07T09:50:28;12.07;;;6.88;;
76447;SDS011;65284;51.040;13.722;2023-05-07T09:52:56;9.90;;;6.20;;
76447;SDS011;65284;51.040;13.722;2023-05-07T09:55:23;9.60;;;6.00;;
76447;SDS011;65284;51.040;13.722;2023-05-07T09:57:50;9.23;;;5.78;;
76447;SDS011;65284;51.040;13.722;2023-05-07T10:00:19;8.18;;;5.55;;
76447;SDS011;65284;51.040;13.722;2023-05-07T10:02:51;8.95;;;6.00;;
76447;SDS011;65284;51.040;13.722;2023-05-07T10:05:19;9.68;;;5.65;;
76447;SDS011;65284;51.040;13.722;2023-05-07T10:07:48;15.85;;;8.63;;
76447;SDS011;65284;51.040;13.722;2023-05-07T10:10:15;12.27;;;6.90;;
76447;SDS011;65284;51.040;13.722;2023-05-07T10:12:43;11.23;;;6.72;;
76447;SDS011;65284;51.040;13.722;2023-05-07T10:15:10;12.00;;;6.93;;
76447;SDS011;65284;51.040;13.722;2023-05-07T10:17:39;12.50;;;6.68;;
76447;SDS011;65284;51.040;13.722;2023-05-07T10:20:06;9.35;;;6.25;;
76447;SDS011;65284;51.040;13.722;2023-05-07T10:22:45;10.52;;;6.60;;
76447;SDS011;65284;51.040;13.722;2023-05-07T10:25:14;9.20;;;5.97;;
76447;SDS011;65284;51.040;13.722;2023-05-07T10:27:45;10.82;;;6.57;;
76447;SDS011;65284;51.040;13.722;2023-05-07T10:33:04;11.07;;;6.88;;
76447;SDS011;65284;51.040;13.722;2023-05-07T10:35:40;12.65;;;7.53;;
76447;SDS011;65284;51.040;13.722;2023-05-07T10:38:08;11.90;;;7.38;;
76447;SDS011;65284;51.040;13.722;2023-05-07T10:40:35;10.77;;;7.05;;
76447;SDS011;65284;51.040;13.722;2023-05-07T10:43:03;11.55;;;6.70;;
76447;SDS011;65284;51.040;13.722;2023-05-07T10:45:35;11.18;;;6.82;;
76447;SDS011;65284;51.040;13.722;2023-05-07T10:50:44;11.73;;;5.93;;
76447;SDS011;65284;51.040;13.722;2023-05-07T10:55:48;11.23;;;6.30;;
76447;SDS011;65284;51.040;13.722;2023-05-07T10:58:23;11.32;;;6.57;;
76447;SDS011;65284;51.040;13.722;2023-05-07T11:03:28;15.95;;;8.55;;
76447;SDS011;65284;51.040;13.722;2023-05-07T11:08:57;8.50;;;5.70;;
76447;SDS011;65284;51.040;13.722;2023-05-07T11:11:43;9.25;;;6.22;;
76447;SDS011;65284;51.040;13.722;2023-05-07T11:14:14;8.85;;;5.75;;
76447;SDS011;65284;51.040;13.722;2023-05-07T11:17:01;8.90;;;5.53;;
76447;SDS011;65284;51.040;13.722;2023-05-07T11:22:35;8.75;;;5.60;;
76447;SDS011;65284;51.040;13.722;2023-05-07T11:25:06;8.98;;;5.40;;
76447;SDS011;65284;51.040;13.722;2023-05-07T11:27:33;9.07;;;5.95;;
76447;SDS011;65284;51.040;13.722;2023-05-07T11:30:00;9.10;;;5.47;;
76447;SDS011;65284;51.040;13.722;2023-05-07T11:32:31;10.75;;;5.57;;
76447;SDS011;65284;51.040;13.722;2023-05-07T11:34:59;9.13;;;5.80;;
76447;SDS011;65284;51.040;13.722;2023-05-07T11:37:26;8.43;;;5.60;;
76447;SDS011;65284;51.040;13.722;2023-05-07T11:42:33;8.82;;;5.55;;
76447;SDS011;65284;51.040;13.722;2023-05-07T11:45:01;8.27;;;5.47;;
76447;SDS011;65284;51.040;13.722;2023-05-07T11:47:29;8.27;;;5.50;;
76447;SDS011;65284;51.040;13.722;2023-05-07T11:49:57;8.13;;;5.40;;
76447;SDS011;65284;51.040;13.722;2023-05-07T11:52:29;11.80;;;5.78;;
76447;SDS011;65284;51.040;13.722;2023-05-07T11:54:56;8.70;;;5.80;;
76447;SDS011;65284;51.040;13.722;2023-05-07T11:57:24;9.90;;;5.80;;
76447;SDS011;65284;51.040;13.722;2023-05-07T11:59:54;9.50;;;5.70;;
76447;SDS011;65284;51.040;13.722;2023-05-07T12:02:21;9.55;;;5.75;;
76447;SDS011;65284;51.040;13.722;2023-05-07T12:04:47;8.43;;;6.05;;
76447;SDS011;65284;51.040;13.722;2023-05-07T12:07:14;9.07;;;5.80;;
76447;SDS011;65284;51.040;13.722;2023-05-07T12:09:42;8.63;;;5.60;;
76447;SDS011;65284;51.040;13.722;2023-05-07T12:12:09;8.57;;;5.30;;
76447;SDS011;65284;51.040;13.722;2023-05-07T12:14:39;8.95;;;5.80;;
76447;SDS011;65284;51.040;13.722;2023-05-07T12:17:10;8.65;;;5.68;;
76447;SDS011;65284;51.040;13.722;2023-05-07T12:19:38;8.73;;;5.35;;
76447;SDS011;65284;51.040;13.722;2023-05-07T12:22:09;7.93;;;5.43;;
76447;SDS011;65284;51.040;13.722;2023-05-07T12:24:49;8.15;;;5.30;;
76447;SDS011;65284;51.040;13.722;2023-05-07T12:27:23;9.00;;;5.97;;
76447;SDS011;65284;51.040;13.722;2023-05-07T12:29:50;8.73;;;5.63;;
76447;SDS011;65284;51.040;13.722;2023-05-07T12:32:18;7.80;;;5.57;;
76447;SDS011;65284;51.040;13.722;2023-05-07T12:34:46;8.98;;;5.75;;
76447;SDS011;65284;51.040;13.722;2023-05-07T12:37:13;9.00;;;5.90;;
76447;SDS011;65284;51.040;13.722;2023-05-07T12:39:48;8.70;;;5.63;;
76447;SDS011;65284;51.040;13.722;2023-05-07T12:42:16;8.40;;;5.72;;
76447;SDS011;65284;51.040;13.722;2023-05-07T12:44:46;10.52;;;5.72;;
76447;SDS011;65284;51.040;13.722;2023-05-07T12:47:12;9.35;;;5.68;;
76447;SDS011;65284;51.040;13.722;2023-05-07T12:49:41;6.90;;;4.90;;
76447;SDS011;65284;51.040;13.722;2023-05-07T12:52:08;7.47;;;5.10;;
76447;SDS011;65284;51.040;13.722;2023-05-07T12:54:37;7.63;;;5.03;;
76447;SDS011;65284;51.040;13.722;2023-05-07T12:57:05;8.73;;;5.63;;
76447;SDS011;65284;51.040;13.722;2023-05-07T12:59:37;7.78;;;5.20;;
76447;SDS011;65284;51.040;13.722;2023-05-07T13:02:05;8.55;;;5.43;;
76447;SDS011;65284;51.040;13.722;2023-05-07T13:04:33;8.98;;;5.60;;
76447;SDS011;65284;51.040;13.722;2023-05-07T13:07:00;7.80;;;5.78;;
76447;SDS011;65284;51.040;13.722;2023-05-07T13:09:27;21.48;;;11.00;;
76447;SDS011;65284;51.040;13.722;2023-05-07T13:11:55;10.38;;;6.40;;
76447;SDS011;65284;51.040;13.722;2023-05-07T13:14:21;7.47;;;5.35;;
76447;SDS011;65284;51.040;13.722;2023-05-07T13:16:48;10.40;;;5.55;;
76447;SDS011;65284;51.040;13.722;2023-05-07T13:19:15;7.13;;;5.10;;
76447;SDS011;65284;51.040;13.722;2023-05-07T13:21:41;9.57;;;6.20;;
76447;SDS011;65284;51.040;13.722;2023-05-07T13:24:08;7.25;;;5.47;;
76447;SDS011;65284;51.040;13.722;2023-05-07T13:26:34;8.07;;;5.43;;
76447;SDS011;65284;51.040;13.722;2023-05-07T13:29:01;8.35;;;5.30;;
76447;SDS011;65284;51.040;13.722;2023-05-07T13:31:27;7.43;;;5.03;;
76447;SDS011;65284;51.040;13.722;2023-05-07T13:33:54;7.63;;;5.07;;
76447;SDS011;65284;51.040;13.722;2023-05-07T13:36:22;6.85;;;4.90;;
76447;SDS011;65284;51.040;13.722;2023-05-07T13:38:48;8.40;;;4.82;;
76447;SDS011;65284;51.040;13.722;2023-05-07T13:41:15;8.27;;;5.00;;
76447;SDS011;65284;51.040;13.722;2023-05-07T13:43:41;9.05;;;5.05;;
76447;SDS011;65284;51.040;13.722;2023-05-07T13:46:08;7.45;;;4.78;;
76447;SDS011;65284;51.040;13.722;2023-05-07T13:48:35;8.57;;;5.03;;
76447;SDS011;65284;51.040;13.722;2023-05-07T13:51:02;7.82;;;4.90;;
76447;SDS011;65284;51.040;13.722;2023-05-07T13:53:28;6.20;;;4.60;;
76447;SDS011;65284;51.040;13.722;2023-05-07T13:55:55;8.88;;;4.85;;
76447;SDS011;65284;51.040;13.722;2023-05-07T13:58:21;7.22;;;4.97;;
76447;SDS011;65284;51.040;13.722;2023-05-07T14:00:47;9.07;;;5.60;;
76447;SDS011;65284;51.040;13.722;2023-05-07T14:03:14;12.52;;;7.25;;
76447;SDS011;65284;51.040;13.722;2023-05-07T14:05:41;9.05;;;5.30;;
76447;SDS011;65284;51.040;13.722;2023-05-07T14:08:08;7.55;;;5.10;;
76447;SDS011;65284;51.040;13.722;2023-05-07T14:10:34;6.80;;;4.60;;
76447;SDS011;65284;51.040;13.722;2023-05-07T14:13:01;6.18;;;4.30;;
76447;SDS011;65284;51.040;13.722;2023-05-07T14:15:27;6.10;;;4.32;;
76447;SDS011;65284;51.040;13.722;2023-05-07T14:17:54;6.50;;;4.35;;
76447;SDS011;65284;51.040;13.722;2023-05-07T14:20:20;6.28;;;4.10;;
76447;SDS011;65284;51.040;13.722;2023-05-07T14:22:47;6.45;;;4.43;;
76447;SDS011;65284;51.040;13.722;2023-05-07T14:25:13;6.70;;;4.28;;
76447;SDS011;65284;51.040;13.722;2023-05-07T14:27:40;6.97;;;4.20;;
76447;SDS011;65284;51.040;13.722;2023-05-07T14:30:06;5.57;;;4.03;;
76447;SDS011;65284;51.040;13.722;2023-05-07T14:32:33;5.07;;;3.58;;
76447;SDS011;65284;51.040;13.722;2023-05-07T14:35:00;7.70;;;4.35;;
76447;SDS011;65284;51.040;13.722;2023-05-07T14:37:27;5.97;;;3.60;;
76447;SDS011;65284;51.040;13.722;2023-05-07T14:39:53;5.53;;;3.60;;
76447;SDS011;65284;51.040;13.722;2023-05-07T14:42:20;5.22;;;3.65;;
76447;SDS011;65284;51.040;13.722;2023-05-07T14:44:46;6.13;;;3.70;;
76447;SDS011;65284;51.040;13.722;2023-05-07T14:47:14;5.95;;;3.60;;
76447;SDS011;65284;51.040;13.722;2023-05-07T14:49:44;5.00;;;3.40;;